Time;durP1;ratioP1;P1;durP2;ratioP2;P2;SDS_P1;SDS_P2;PMS_P1;PMS_P2;Temp;Humidity;BMP_temperature;BMP_pressure;BME280_temperature;BME280_humidity;BME280_pressure;Samples;Min_cycle;Max_cycle;Signal;HPM_P1;HPM_P2
2022/01/22 00:00:22;;;;;;;3.70;1.45;;;2.50;99.90;;;;;;5056599;28;20732;-74
2022/01/22 00:02:50;;;;;;;6.00;1.90;;;2.50;99.90;;;;;;5056815;28;20474;-74
2022/01/22 00:05:19;;;;;;;3.20;1.50;;;2.60;99.90;;;;;;5057532;28;20837;-73
2022/01/22 00:07:48;;;;;;;2.65;1.20;;;2.50;99.90;;;;;;5056631;28;20425;-74
2022/01/22 00:10:19;;;;;;;3.72;1.50;;;2.60;99.90;;;;;;5057162;28;20405;-75
2022/01/22 00:13:07;;;;;;;4.00;1.38;;;2.80;99.90;;;;;;5056084;28;20433;-74
2022/01/22 00:15:34;;;;;;;3.90;1.23;;;2.80;99.90;;;;;;5056216;28;20425;-74
2022/01/22 00:18:01;;;;;;;2.58;1.20;;;2.80;99.90;;;;;;5054701;28;20745;-75
2022/01/22 00:20:30;;;;;;;2.33;1.00;;;2.90;99.90;;;;;;5044706;28;20898;-74
2022/01/22 00:22:58;;;;;;;1.85;1.00;;;2.90;99.90;;;;;;5052185;28;20484;-74
2022/01/22 00:25:26;;;;;;;2.58;1.00;;;2.90;99.90;;;;;;5044772;28;20442;-74
2022/01/22 00:27:54;;;;;;;1.30;0.90;;;3.00;99.90;;;;;;5052736;28;20461;-74
2022/01/22 00:30:23;;;;;;;3.20;1.10;;;3.20;99.90;;;;;;5052110;28;20512;-75
2022/01/22 00:32:51;;;;;;;1.33;0.90;;;3.30;99.90;;;;;;5052122;28;20433;-75
2022/01/22 00:35:20;;;;;;;1.90;0.93;;;3.30;99.90;;;;;;5052622;28;20837;-74
2022/01/22 00:37:49;;;;;;;2.10;0.80;;;3.20;99.90;;;;;;5052659;28;20495;-74
2022/01/22 00:40:18;;;;;;;1.90;0.90;;;3.20;99.90;;;;;;5053787;28;20847;-75
2022/01/22 00:42:47;;;;;;;1.60;0.90;;;3.30;99.90;;;;;;5053866;28;20432;-73
2022/01/22 00:45:14;;;;;;;2.88;0.93;;;3.40;99.90;;;;;;5054158;28;20452;-74
2022/01/22 00:47:41;;;;;;;1.70;0.95;;;3.50;99.90;;;;;;5052658;28;20475;-73
2022/01/22 00:50:14;;;;;;;1.50;1.00;;;3.40;99.90;;;;;;5053708;28;20487;-73
2022/01/22 00:52:42;;;;;;;1.40;0.90;;;3.40;99.90;;;;;;5054394;28;20903;-74
2022/01/22 00:55:10;;;;;;;1.50;0.80;;;3.40;99.90;;;;;;5054456;28;20456;-73
2022/01/22 00:57:40;;;;;;;3.30;1.00;;;3.50;99.90;;;;;;5053746;28;20429;-74
2022/01/22 01:00:11;;;;;;;2.42;0.90;;;3.40;99.90;;;;;;5054740;28;20440;-73
2022/01/22 01:02:38;;;;;;;2.30;0.90;;;3.40;99.90;;;;;;5054255;28;20744;-74
2022/01/22 01:05:06;;;;;;;1.90;0.90;;;3.40;99.90;;;;;;5053441;28;20421;-74
2022/01/22 01:07:33;;;;;;;1.65;1.05;;;3.50;99.90;;;;;;5053154;28;20465;-74
2022/01/22 01:10:01;;;;;;;2.00;1.30;;;3.40;99.90;;;;;;5052354;28;20461;-73
2022/01/22 01:12:28;;;;;;;1.40;0.90;;;3.50;99.90;;;;;;5052516;28;20920;-74
2022/01/22 01:15:11;;;;;;;1.80;1.08;;;3.40;99.90;;;;;;5052530;28;20536;-74
2022/01/22 01:17:58;;;;;;;1.90;1.00;;;3.40;99.90;;;;;;5052478;28;20424;-73
2022/01/22 01:34:12;;;;;;;1.85;1.00;;;3.40;99.90;;;;;;5072504;28;20423;-73
2022/01/22 01:36:40;;;;;;;2.58;1.00;;;3.50;99.90;;;;;;5073652;28;20739;-73
2022/01/22 01:39:10;;;;;;;1.47;0.90;;;3.60;99.90;;;;;;5074713;28;20477;-73
2022/01/22 01:41:46;;;;;;;1.90;0.90;;;3.70;99.90;;;;;;5077235;28;20427;-73
2022/01/22 01:44:13;;;;;;;1.58;0.90;;;3.80;99.90;;;;;;5078786;28;20442;-73
2022/01/22 01:46:48;;;;;;;2.28;1.00;;;3.90;99.90;;;;;;5079404;28;20470;-73
2022/01/22 01:49:16;;;;;;;2.67;1.00;;;4.00;99.90;;;;;;5078799;28;20419;-73
2022/01/22 01:51:43;;;;;;;4.10;1.02;;;3.80;99.90;;;;;;5079377;28;20435;-74
2022/01/22 01:54:25;;;;;;;2.30;1.05;;;3.80;99.90;;;;;;5079375;28;20427;-73
2022/01/22 01:59:39;;;;;;;2.50;0.90;;;3.90;99.90;;;;;;5079018;28;20410;-73
2022/01/22 02:02:08;;;;;;;3.30;1.10;;;3.90;99.90;;;;;;5079333;28;20794;-74
2022/01/22 02:04:35;;;;;;;2.50;1.30;;;3.90;99.90;;;;;;5078850;28;20704;-73
2022/01/22 02:07:02;;;;;;;2.67;1.05;;;3.90;99.90;;;;;;5077941;28;20827;-73
2022/01/22 02:09:29;;;;;;;2.85;1.10;;;3.90;99.90;;;;;;5077481;28;20427;-73
2022/01/22 02:12:02;;;;;;;2.00;1.00;;;3.90;99.90;;;;;;5077277;28;20889;-74
2022/01/22 02:25:31;;;;;;;2.25;1.20;;;3.70;99.90;;;;;;5076666;28;20426;-72
2022/01/22 02:27:59;;;;;;;2.57;1.20;;;3.80;99.90;;;;;;5058143;28;20487;-72
2022/01/22 02:30:30;;;;;;;2.30;1.00;;;3.90;99.90;;;;;;5057886;28;20425;-72
2022/01/22 02:33:14;;;;;;;2.35;1.10;;;3.90;99.90;;;;;;5058187;28;20444;-72
2022/01/22 02:35:48;;;;;;;2.33;1.10;;;4.00;99.90;;;;;;5056642;28;20726;-73
2022/01/22 02:38:21;;;;;;;2.00;1.00;;;4.10;99.90;;;;;;5057151;28;20425;-72
2022/01/22 02:40:50;;;;;;;2.70;1.20;;;4.10;99.90;;;;;;5056544;28;20433;-72
2022/01/22 02:43:18;;;;;;;1.90;1.10;;;4.00;99.90;;;;;;5057445;28;20430;-72
2022/01/22 02:45:47;;;;;;;2.15;1.20;;;3.90;99.90;;;;;;5057423;28;20443;-72
2022/01/22 02:48:14;;;;;;;2.30;1.10;;;3.90;99.90;;;;;;5056832;28;20922;-72
2022/01/22 02:50:42;;;;;;;2.70;1.20;;;3.90;99.90;;;;;;5057214;28;20441;-72
2022/01/22 02:53:13;;;;;;;3.33;1.20;;;3.90;99.90;;;;;;5056022;28;20465;-73
2022/01/22 02:55:42;;;;;;;2.60;1.30;;;3.90;99.90;;;;;;5056183;28;20421;-72
2022/01/22 02:58:09;;;;;;;2.22;1.10;;;4.10;99.90;;;;;;5057794;28;20431;-72
2022/01/22 03:00:36;;;;;;;4.30;1.60;;;4.10;99.90;;;;;;5057653;28;20563;-73
2022/01/22 03:03:05;;;;;;;1.92;1.10;;;4.10;99.90;;;;;;5057298;28;20422;-72
2022/01/22 03:05:32;;;;;;;2.63;1.15;;;4.00;99.90;;;;;;5057501;28;20958;-72
2022/01/22 03:08:06;;;;;;;1.97;1.20;;;3.90;99.90;;;;;;5057277;28;20577;-73
2022/01/22 03:10:33;;;;;;;2.90;1.50;;;4.00;99.90;;;;;;5056610;28;20453;-72
2022/01/22 03:13:36;;;;;;;5.10;1.50;;;3.90;99.90;;;;;;5057180;28;20433;-74
2022/01/22 03:16:09;;;;;;;2.50;1.15;;;3.90;99.90;;;;;;5057585;28;20860;-74
2022/01/22 03:18:54;;;;;;;2.90;1.08;;;3.90;99.90;;;;;;5057532;28;20436;-73
2022/01/22 03:21:37;;;;;;;3.20;1.40;;;4.00;99.90;;;;;;5057816;28;20480;-73
2022/01/22 03:27:24;;;;;;;2.75;1.10;;;4.10;99.90;;;;;;5026529;28;20452;-73
2022/01/22 03:29:53;;;;;;;2.50;1.10;;;4.10;99.90;;;;;;5033623;28;20423;-73
2022/01/22 03:32:21;;;;;;;2.20;1.20;;;4.20;99.90;;;;;;5059062;28;20439;-73
2022/01/22 03:34:57;;;;;;;2.80;1.00;;;4.20;99.90;;;;;;5076498;28;20814;-73
2022/01/22 03:37:25;;;;;;;2.27;1.10;;;4.10;99.90;;;;;;5076666;28;20578;-73
2022/01/22 03:39:53;;;;;;;2.10;1.10;;;4.00;99.90;;;;;;5076384;28;20497;-73
2022/01/22 03:42:20;;;;;;;2.00;1.10;;;4.00;99.90;;;;;;5076419;28;20424;-73
2022/01/22 03:44:47;;;;;;;1.92;1.20;;;4.10;99.90;;;;;;5076391;28;20478;-73
2022/01/22 03:47:15;;;;;;;3.40;1.23;;;4.00;99.90;;;;;;5077310;28;20432;-73
2022/01/22 03:49:42;;;;;;;3.75;1.40;;;3.90;99.90;;;;;;5076623;28;20504;-73
2022/01/22 03:52:09;;;;;;;2.75;1.20;;;3.90;99.90;;;;;;5076878;28;20471;-73
2022/01/22 03:54:36;;;;;;;3.03;1.10;;;3.90;99.90;;;;;;5077124;28;20462;-72
2022/01/22 03:57:04;;;;;;;2.53;1.20;;;3.80;99.90;;;;;;5076845;28;20477;-72
2022/01/22 03:59:31;;;;;;;2.70;1.50;;;3.80;99.90;;;;;;5076005;28;20492;-72
2022/01/22 04:04:44;;;;;;;3.70;1.40;;;3.80;99.90;;;;;;5074781;28;20386;-72
2022/01/22 04:07:59;;;;;;;2.50;1.20;;;3.90;99.90;;;;;;5075443;28;20431;-72
2022/01/22 04:10:11;;;;;;;3.57;1.40;;;3.80;99.90;;;;;;5074903;28;20889;-73
2022/01/22 04:12:46;;;;;;;2.60;1.35;;;3.80;99.90;;;;;;5074373;28;20530;-72
2022/01/22 04:15:15;;;;;;;3.42;1.40;;;3.80;99.90;;;;;;5075570;28;20412;-73
2022/01/22 04:26:06;;;;;;;2.55;1.50;;;3.90;99.90;;;;;;5075501;28;20873;-73
2022/01/22 04:28:32;;;;;;;3.60;1.50;;;3.90;99.90;;;;;;5075941;28;20894;-73
2022/01/22 04:30:59;;;;;;;2.33;1.25;;;4.00;99.90;;;;;;5075719;28;20419;-73
2022/01/22 04:33:26;;;;;;;3.95;1.40;;;4.10;99.90;;;;;;5075044;28;20443;-73
2022/01/22 04:35:55;;;;;;;2.53;1.30;;;4.20;99.90;;;;;;5075479;28;20489;-73
2022/01/22 04:38:22;;;;;;;3.58;1.65;;;4.30;99.90;;;;;;5073895;28;20463;-73
2022/01/22 04:40:49;;;;;;;2.28;1.40;;;4.20;99.90;;;;;;5074355;28;20459;-73
2022/01/22 04:43:16;;;;;;;2.50;1.20;;;4.00;99.90;;;;;;5074582;28;20423;-73
2022/01/22 04:45:52;;;;;;;2.90;1.42;;;4.00;99.90;;;;;;5073911;28;20477;-73
2022/01/22 04:48:42;;;;;;;2.78;1.35;;;3.90;99.90;;;;;;5074157;28;20442;-73
2022/01/22 04:56:39;;;;;;;3.00;1.58;;;3.90;99.90;;;;;;5073379;28;20534;-73
2022/01/22 04:59:07;;;;;;;3.55;1.33;;;3.90;99.90;;;;;;5073553;28;20455;-73
2022/01/22 05:01:34;;;;;;;3.17;1.60;;;4.10;99.90;;;;;;5065604;28;20497;-73
2022/01/22 05:04:02;;;;;;;2.90;1.55;;;4.20;99.90;;;;;;5074766;28;20497;-73
2022/01/22 05:06:30;;;;;;;2.85;1.40;;;4.20;99.90;;;;;;5074687;28;20431;-73
2022/01/22 05:08:58;;;;;;;2.23;1.23;;;4.20;99.90;;;;;;5074765;28;20470;-73
2022/01/22 05:11:25;;;;;;;2.45;1.40;;;4.20;99.90;;;;;;5075513;28;20712;-72
2022/01/22 05:13:55;;;;;;;2.97;1.40;;;4.20;99.90;;;;;;5075619;28;20459;-73
2022/01/22 05:16:22;;;;;;;3.70;1.50;;;4.20;99.90;;;;;;5075462;28;20427;-73
2022/01/22 05:18:54;;;;;;;2.20;1.70;;;4.10;99.90;;;;;;5075351;28;20419;-73
2022/01/22 05:21:22;;;;;;;3.28;1.40;;;4.00;99.90;;;;;;5075347;28;20435;-73
2022/01/22 05:23:53;;;;;;;3.03;1.60;;;4.00;99.90;;;;;;5074958;28;20419;-73
2022/01/22 05:29:32;;;;;;;2.97;1.77;;;4.20;99.90;;;;;;5111854;27;20368;-57
2022/01/22 05:37:30;;;;;;;3.40;1.60;;;4.20;99.90;;;;;;5111868;28;20648;-56
2022/01/22 05:39:57;;;;;;;4.30;1.60;;;4.20;99.90;;;;;;5112558;28;20421;-56
2022/01/22 05:42:24;;;;;;;2.30;1.30;;;4.10;99.90;;;;;;5112142;28;20428;-57
2022/01/22 05:44:52;;;;;;;3.25;1.20;;;4.10;99.90;;;;;;5112610;28;20856;-54
2022/01/22 05:47:22;;;;;;;3.90;1.60;;;4.10;99.90;;;;;;5112141;28;20487;-51
2022/01/22 05:49:49;;;;;;;2.50;1.23;;;4.20;99.90;;;;;;5108190;28;20468;-56
2022/01/22 05:52:28;;;;;;;3.50;1.88;;;4.30;99.90;;;;;;5107826;28;20737;-56
2022/01/22 06:00:32;;;;;;;3.10;1.60;;;4.30;99.90;;;;;;5109379;28;20843;-57
2022/01/22 06:02:59;;;;;;;3.10;1.42;;;4.30;99.90;;;;;;5112002;28;20509;-57
2022/01/22 06:05:26;;;;;;;2.90;1.30;;;4.40;99.90;;;;;;5112442;28;20453;-56
2022/01/22 06:07:53;;;;;;;3.17;1.50;;;4.30;99.90;;;;;;5112934;28;20453;-56
2022/01/22 06:10:27;;;;;;;3.00;1.35;;;4.30;99.90;;;;;;5112744;28;20449;-55
2022/01/22 06:13:11;;;;;;;2.40;1.20;;;4.20;99.90;;;;;;5112249;28;20421;-56
2022/01/22 06:15:37;;;;;;;3.17;1.50;;;4.20;99.90;;;;;;5112784;28;20432;-56
2022/01/22 06:18:05;;;;;;;2.28;1.20;;;4.30;99.90;;;;;;5112791;28;20465;-57
2022/01/22 06:20:32;;;;;;;3.47;1.40;;;4.30;99.90;;;;;;5112697;28;20449;-55
2022/01/22 06:22:59;;;;;;;2.20;1.33;;;4.30;99.90;;;;;;5112921;28;20460;-56
2022/01/22 06:25:26;;;;;;;3.08;1.60;;;4.30;99.90;;;;;;5112527;28;20471;-58
2022/01/22 06:27:54;;;;;;;2.90;1.50;;;4.40;99.90;;;;;;5112366;28;20449;-55
2022/01/22 06:30:21;;;;;;;3.25;1.60;;;4.40;99.90;;;;;;5112180;28;20421;-56
2022/01/22 06:32:48;;;;;;;3.17;1.30;;;4.40;99.90;;;;;;5111560;28;20457;-57
2022/01/22 06:35:15;;;;;;;4.93;1.40;;;4.20;99.90;;;;;;5112413;28;20444;-58
2022/01/22 06:37:43;;;;;;;2.55;1.20;;;4.20;99.90;;;;;;5112220;28;20465;-56
2022/01/22 06:42:56;;;;;;;1.90;1.30;;;4.20;99.90;;;;;;5111998;28;20433;-54
2022/01/22 06:45:23;;;;;;;2.72;1.30;;;4.10;99.90;;;;;;5111263;28;20769;-57
2022/01/22 06:47:50;;;;;;;2.97;1.20;;;4.10;99.90;;;;;;5111787;28;20466;-57
2022/01/22 06:50:18;;;;;;;2.55;1.35;;;4.30;99.90;;;;;;5111300;28;20463;-56
2022/01/22 06:52:45;;;;;;;6.17;1.40;;;4.30;99.90;;;;;;5111527;28;20421;-56
2022/01/22 06:55:16;;;;;;;4.03;1.35;;;4.40;99.90;;;;;;5111865;28;20476;-56
2022/01/22 06:57:43;;;;;;;2.70;1.40;;;4.30;99.90;;;;;;5110441;28;21041;-56
2022/01/22 07:00:12;;;;;;;2.72;1.30;;;4.30;99.90;;;;;;5111016;28;20456;-57
2022/01/22 07:02:39;;;;;;;3.90;1.58;;;4.40;99.90;;;;;;5111355;28;20433;-55
2022/01/22 07:05:07;;;;;;;3.53;1.58;;;4.40;99.90;;;;;;5109515;28;20797;-56
2022/01/22 07:07:35;;;;;;;2.67;1.20;;;4.40;99.90;;;;;;5105699;28;20453;-58
2022/01/22 07:10:02;;;;;;;3.80;1.43;;;4.40;99.90;;;;;;5096290;28;20422;-52
2022/01/22 07:12:29;;;;;;;3.22;1.30;;;4.50;99.90;;;;;;5096577;28;20490;-54
2022/01/22 07:14:57;;;;;;;2.60;1.40;;;4.60;99.90;;;;;;5095633;28;20468;-53
2022/01/22 07:17:25;;;;;;;3.85;1.40;;;4.50;99.90;;;;;;5096497;28;20434;-53
2022/01/22 07:19:54;;;;;;;4.00;1.20;;;4.50;99.90;;;;;;5095673;28;20793;-53
2022/01/22 07:22:37;;;;;;;3.72;1.40;;;4.40;99.90;;;;;;5095954;28;20789;-52
2022/01/22 07:25:05;;;;;;;2.47;1.37;;;4.40;99.90;;;;;;5095562;28;20454;-54
2022/01/22 07:27:32;;;;;;;2.75;1.30;;;4.30;99.90;;;;;;5094986;28;20456;-54
2022/01/22 07:29:59;;;;;;;3.88;1.55;;;4.20;99.90;;;;;;5093223;28;20461;-56
2022/01/22 07:32:35;;;;;;;5.05;2.10;;;4.20;99.90;;;;;;5094350;28;20527;-53
2022/01/22 07:35:02;;;;;;;3.28;1.50;;;4.20;99.90;;;;;;5074138;28;20423;-54
2022/01/22 07:37:29;;;;;;;3.78;1.90;;;4.10;99.90;;;;;;5074234;28;21014;-53
2022/01/22 07:39:56;;;;;;;2.50;1.30;;;4.10;99.90;;;;;;5074235;28;20851;-53
2022/01/22 07:42:23;;;;;;;3.40;1.50;;;4.00;99.90;;;;;;5080524;28;20433;-53
2022/01/22 07:44:50;;;;;;;3.78;1.40;;;4.00;99.90;;;;;;5096900;28;20479;-54
2022/01/22 07:47:17;;;;;;;4.15;1.60;;;3.90;99.90;;;;;;5096112;28;20430;-51
2022/01/22 07:49:45;;;;;;;3.75;1.45;;;3.90;99.90;;;;;;5095902;28;20461;-49
2022/01/22 07:52:12;;;;;;;3.90;1.60;;;3.90;99.90;;;;;;5094441;28;20463;-54
2022/01/22 07:54:39;;;;;;;3.55;2.10;;;4.00;99.90;;;;;;5092386;28;20798;-49
2022/01/22 07:57:06;;;;;;;4.03;1.50;;;4.10;99.90;;;;;;5094183;28;20506;-53
2022/01/22 07:59:34;;;;;;;4.53;1.50;;;3.90;99.90;;;;;;5094907;28;20464;-51
2022/01/22 08:02:02;;;;;;;3.20;1.40;;;3.90;99.90;;;;;;5094640;28;20429;-53
2022/01/22 08:04:29;;;;;;;3.13;1.70;;;3.80;99.90;;;;;;5092193;28;20542;-49
2022/01/22 08:07:00;;;;;;;5.47;1.33;;;3.80;99.90;;;;;;5093843;28;20865;-49
2022/01/22 08:09:28;;;;;;;3.55;1.30;;;3.70;99.90;;;;;;5094896;28;20422;-54
2022/01/22 08:11:55;;;;;;;3.53;1.50;;;3.70;99.90;;;;;;5094020;28;20861;-52
2022/01/22 08:14:22;;;;;;;3.03;1.20;;;3.70;99.90;;;;;;5094872;28;20512;-53
2022/01/22 08:16:49;;;;;;;9.35;2.60;;;3.60;99.90;;;;;;5094657;28;20575;-53
2022/01/22 08:19:17;;;;;;;4.80;2.30;;;3.60;99.90;;;;;;5094543;28;20471;-54
2022/01/22 08:21:45;;;;;;;4.53;1.90;;;3.60;99.90;;;;;;5094546;28;20425;-53
2022/01/22 08:24:14;;;;;;;3.80;1.95;;;3.50;99.90;;;;;;5095602;28;20458;-54
2022/01/22 08:26:46;;;;;;;4.70;2.00;;;3.50;99.90;;;;;;5094084;28;20451;-54
2022/01/22 08:29:13;;;;;;;6.15;1.90;;;3.40;99.90;;;;;;5091933;28;20422;-55
2022/01/22 08:31:49;;;;;;;3.63;1.77;;;3.40;99.90;;;;;;5091798;28;20422;-55
2022/01/22 08:37:00;;;;;;;4.10;1.70;;;3.30;99.90;;;;;;5092610;28;20425;-55
2022/01/22 08:39:30;;;;;;;3.88;1.55;;;3.30;99.90;;;;;;5094230;28;20868;-53
2022/01/22 08:41:57;;;;;;;4.55;2.15;;;3.30;99.90;;;;;;5093840;28;20864;-52
2022/01/22 08:44:24;;;;;;;4.43;1.90;;;3.30;99.90;;;;;;5087725;28;20803;-54
2022/01/22 08:46:51;;;;;;;5.40;2.25;;;3.30;99.90;;;;;;5080487;28;20432;-53
2022/01/22 08:49:18;;;;;;;3.80;2.08;;;3.30;99.90;;;;;;5091435;28;20679;-54
2022/01/22 08:51:45;;;;;;;4.95;1.88;;;3.60;99.90;;;;;;5092412;28;20817;-54
2022/01/22 08:54:12;;;;;;;4.07;1.90;;;4.20;99.90;;;;;;5093856;28;20464;-53
2022/01/22 08:56:41;;;;;;;3.38;1.70;;;4.30;99.90;;;;;;5092729;28;20469;-52
2022/01/22 08:59:08;;;;;;;4.10;1.55;;;4.60;99.90;;;;;;5093844;28;20763;-53
2022/01/22 09:01:36;;;;;;;4.95;1.40;;;4.90;99.90;;;;;;5094303;28;20461;-51
2022/01/22 09:04:03;;;;;;;3.00;1.60;;;5.10;99.90;;;;;;5094740;28;20450;-49
2022/01/22 09:06:30;;;;;;;4.63;1.30;;;5.20;99.90;;;;;;5090792;28;20431;-52
2022/01/22 09:09:06;;;;;;;6.10;1.67;;;5.00;99.90;;;;;;5093766;28;20452;-51
2022/01/22 09:11:33;;;;;;;3.75;1.40;;;4.80;99.90;;;;;;5093527;28;20442;-52
2022/01/22 09:14:02;;;;;;;2.50;1.40;;;4.90;99.90;;;;;;5094600;28;20445;-54
2022/01/22 09:16:29;;;;;;;2.35;1.60;;;5.00;99.90;;;;;;5094017;28;20441;-51
2022/01/22 09:19:00;;;;;;;4.43;1.80;;;5.00;99.90;;;;;;5092564;28;20505;-53
2022/01/22 09:21:27;;;;;;;60.92;37.13;;;5.10;99.90;;;;;;5093797;28;20434;-53
2022/01/22 09:23:56;;;;;;;4.85;2.55;;;4.90;99.90;;;;;;5093936;28;20454;-54
2022/01/22 09:26:23;;;;;;;4.55;2.20;;;4.60;99.90;;;;;;5090158;28;20522;-55
2022/01/22 09:28:51;;;;;;;4.43;2.35;;;4.40;99.90;;;;;;5093824;28;20457;-54
2022/01/22 09:31:19;;;;;;;3.83;2.43;;;4.20;99.90;;;;;;5091894;28;20448;-54
2022/01/22 09:33:46;;;;;;;5.03;2.42;;;4.10;99.90;;;;;;5092236;28;20759;-51
2022/01/22 09:36:13;;;;;;;5.10;2.33;;;4.00;99.90;;;;;;5093093;28;20450;-55
2022/01/22 09:38:40;;;;;;;3.78;2.00;;;3.90;99.90;;;;;;5091058;28;20468;-55
2022/01/22 09:41:07;;;;;;;6.60;2.70;;;3.90;99.90;;;;;;5092586;28;20789;-48
2022/01/22 09:43:34;;;;;;;6.28;2.25;;;4.10;99.90;;;;;;5093237;28;20516;-53
2022/01/22 09:46:01;;;;;;;4.20;1.90;;;4.00;99.90;;;;;;5091249;28;20520;-53
2022/01/22 09:48:29;;;;;;;3.63;1.60;;;4.40;99.90;;;;;;5090824;28;20884;-54
2022/01/22 09:50:56;;;;;;;4.43;2.05;;;4.50;99.90;;;;;;5088650;28;20470;-54
2022/01/22 09:53:23;;;;;;;6.10;1.90;;;4.50;99.90;;;;;;5090519;28;20461;-51
2022/01/22 09:55:51;;;;;;;4.50;1.85;;;4.60;99.90;;;;;;5081565;28;20461;-54
2022/01/22 09:58:18;;;;;;;3.70;2.10;;;4.50;99.90;;;;;;5087520;28;20435;-53
2022/01/22 10:00:46;;;;;;;4.57;2.40;;;4.60;99.90;;;;;;5087799;28;20498;-54
2022/01/22 10:03:19;;;;;;;5.28;2.00;;;4.40;99.90;;;;;;5088589;28;20574;-54
2022/01/22 10:05:51;;;;;;;6.07;2.25;;;4.40;99.90;;;;;;5087605;28;20849;-55
2022/01/22 10:08:24;;;;;;;5.23;2.00;;;5.10;99.90;;;;;;5090575;28;20454;-54
2022/01/22 10:10:53;;;;;;;4.32;2.10;;;5.20;99.90;;;;;;5091010;28;20429;-54
2022/01/22 10:13:41;;;;;;;4.38;1.63;;;5.10;99.90;;;;;;5092633;28;20787;-53
2022/01/22 10:16:21;;;;;;;4.75;1.80;;;5.00;99.90;;;;;;5092923;28;20455;-54
2022/01/22 10:19:12;;;;;;;5.38;1.77;;;4.90;99.90;;;;;;5091824;28;20466;-54
2022/01/22 10:21:43;;;;;;;6.57;1.90;;;5.00;99.90;;;;;;5089690;28;20538;-51
2022/01/22 10:24:29;;;;;;;3.05;1.40;;;4.90;99.90;;;;;;5090540;28;20529;-51
2022/01/22 10:27:29;;;;;;;1.92;1.48;;;4.70;99.90;;;;;;5086402;28;20535;-52
2022/01/22 10:30:00;;;;;;;2.97;1.30;;;4.80;99.90;;;;;;5084152;28;20437;-52
2022/01/22 10:32:38;;;;;;;3.10;1.38;;;4.80;99.90;;;;;;5091824;28;20430;-55
2022/01/22 10:35:08;;;;;;;3.40;1.40;;;4.80;99.90;;;;;;5072418;28;20432;-55
2022/01/22 10:37:37;;;;;;;2.63;1.40;;;4.70;99.90;;;;;;5084902;28;20492;-49
2022/01/22 10:40:27;;;;;;;3.15;1.30;;;5.10;99.90;;;;;;5085324;28;20449;-53
2022/01/22 10:43:19;;;;;;;3.97;1.35;;;5.30;99.90;;;;;;5087542;28;20922;-54
2022/01/22 10:46:07;;;;;;;2.78;1.20;;;5.60;99.90;;;;;;5088660;28;20433;-53
2022/01/22 10:48:35;;;;;;;2.30;1.10;;;5.50;99.90;;;;;;5086270;28;20424;-52
2022/01/22 10:51:08;;;;;;;2.60;1.30;;;5.40;99.90;;;;;;5078510;28;20477;-52
2022/01/22 10:53:43;;;;;;;2.58;1.20;;;5.40;99.90;;;;;;5087079;28;20891;-54
2022/01/22 10:56:14;;;;;;;2.97;1.20;;;5.70;99.90;;;;;;5081339;28;20468;-52
2022/01/22 10:59:02;;;;;;;1.80;1.10;;;5.70;99.90;;;;;;5089794;28;21033;-54
2022/01/22 11:01:31;;;;;;;3.75;1.35;;;5.70;99.90;;;;;;5083729;28;20434;-52
2022/01/22 11:04:08;;;;;;;3.23;1.10;;;5.40;99.90;;;;;;5084009;28;20461;-52
2022/01/22 11:06:35;;;;;;;2.20;1.15;;;5.30;99.90;;;;;;5087953;28;20498;-52
2022/01/22 11:09:05;;;;;;;2.30;1.00;;;5.50;99.90;;;;;;5089917;28;20457;-50
2022/01/22 11:11:36;;;;;;;2.80;1.10;;;5.70;99.90;;;;;;5088419;28;20440;-51
2022/01/22 11:14:04;;;;;;;4.65;1.33;;;6.00;99.90;;;;;;5090237;28;20509;-55
2022/01/22 11:16:32;;;;;;;2.88;1.20;;;6.20;99.90;;;;;;5091460;28;20475;-52
2022/01/22 11:19:02;;;;;;;4.50;1.75;;;6.40;99.90;;;;;;5088346;28;20520;-51
2022/01/22 11:21:31;;;;;;;2.00;1.10;;;6.50;99.90;;;;;;5086022;28;20508;-55
2022/01/22 11:23:59;;;;;;;2.40;1.40;;;6.60;99.90;;;;;;5089130;28;20434;-55
2022/01/22 11:26:29;;;;;;;3.80;1.30;;;6.70;99.90;;;;;;5091529;28;20434;-56
2022/01/22 11:28:57;;;;;;;1.58;1.00;;;6.80;99.90;;;;;;5091690;28;20454;-56
2022/01/22 11:31:26;;;;;;;2.60;1.10;;;7.00;99.90;;;;;;5088242;28;20436;-53
2022/01/22 11:33:55;;;;;;;5.20;1.20;;;7.00;99.90;;;;;;5089307;28;20430;-53
2022/01/22 11:36:27;;;;;;;4.10;1.50;;;6.80;99.90;;;;;;5086692;28;20541;-54
2022/01/22 11:38:57;;;;;;;2.70;1.40;;;6.20;99.90;;;;;;5089552;28;20817;-54
2022/01/22 11:41:25;;;;;;;3.50;1.73;;;5.70;99.90;;;;;;5089490;28;20664;-55
2022/01/22 11:44:10;;;;;;;5.40;2.85;;;5.40;99.90;;;;;;5081580;28;20442;-53
2022/01/22 11:46:58;;;;;;;3.28;1.50;;;5.40;99.90;;;;;;5091626;28;20441;-52
2022/01/22 11:49:28;;;;;;;2.28;1.30;;;5.40;99.90;;;;;;5085764;28;20410;-52
2022/01/22 11:52:27;;;;;;;3.20;1.10;;;5.40;99.90;;;;;;5088422;28;20435;-55
2022/01/22 11:54:55;;;;;;;5.25;1.52;;;5.50;99.90;;;;;;5091548;28;20420;-54
2022/01/22 11:57:26;;;;;;;6.15;1.50;;;5.80;99.90;;;;;;5089942;28;20422;-57
2022/01/22 12:00:31;;;;;;;2.97;1.20;;;5.90;99.90;;;;;;5090491;28;20425;-53
2022/01/22 12:03:24;;;;;;;3.65;1.30;;;5.70;99.90;;;;;;5088320;28;20440;-54
2022/01/22 12:06:10;;;;;;;3.55;1.40;;;5.40;99.90;;;;;;5087696;28;20484;-55
2022/01/22 12:09:09;;;;;;;3.40;1.10;;;5.70;99.90;;;;;;5092137;28;20422;-53
2022/01/22 12:14:53;;;;;;;2.30;1.00;;;5.90;99.90;;;;;;5076807;28;20572;-52
2022/01/22 12:18:01;;;;;;;2.03;1.00;;;6.30;99.90;;;;;;5092010;28;20737;-56
2022/01/22 12:23:47;;;;;;;2.30;0.85;;;6.70;99.90;;;;;;5091037;28;20408;-56
2022/01/22 12:26:14;;;;;;;1.60;0.90;;;6.60;99.90;;;;;;5072520;28;20470;-53
2022/01/22 12:28:43;;;;;;;1.60;0.82;;;6.70;99.90;;;;;;5090456;28;20783;-56
2022/01/22 12:31:14;;;;;;;1.50;0.80;;;6.40;99.90;;;;;;5081064;28;20794;-57
2022/01/22 12:33:48;;;;;;;2.00;1.00;;;6.40;99.90;;;;;;5093958;28;20434;-55
2022/01/22 12:36:21;;;;;;;1.70;0.90;;;6.50;99.90;;;;;;5085168;28;20458;-56
2022/01/22 12:39:03;;;;;;;1.40;0.70;;;6.50;99.90;;;;;;5079688;28;20845;-53
2022/01/22 12:41:34;;;;;;;2.25;0.90;;;6.80;99.90;;;;;;5078822;28;20649;-54
2022/01/22 12:44:11;;;;;;;1.17;0.80;;;7.00;99.90;;;;;;5079898;28;20420;-56
2022/01/22 12:46:40;;;;;;;1.20;0.80;;;7.00;99.90;;;;;;5083231;28;20502;-54
2022/01/22 12:49:09;;;;;;;2.13;1.20;;;7.00;99.90;;;;;;5086894;28;20438;-54
2022/01/22 12:51:37;;;;;;;1.50;0.80;;;6.60;99.90;;;;;;5083465;28;20835;-59
2022/01/22 12:54:07;;;;;;;1.60;0.90;;;6.80;99.90;;;;;;5091181;28;20810;-54
2022/01/22 12:56:51;;;;;;;2.83;1.20;;;6.80;99.90;;;;;;5093440;28;20430;-52
2022/01/22 12:59:19;;;;;;;1.50;1.20;;;6.60;99.90;;;;;;5083395;28;20737;-55
2022/01/22 13:01:51;;;;;;;1.10;0.70;;;6.50;99.90;;;;;;5093406;28;20853;-53
2022/01/22 13:04:22;;;;;;;2.20;0.80;;;6.70;99.90;;;;;;5093280;28;20776;-57
2022/01/22 13:06:52;;;;;;;5.20;2.55;;;6.90;99.90;;;;;;5086347;28;20457;-56
2022/01/22 13:09:19;;;;;;;2.70;1.00;;;6.90;99.90;;;;;;5092662;28;20842;-55
2022/01/22 13:11:49;;;;;;;1.73;0.80;;;6.70;99.90;;;;;;5092952;28;20440;-52
2022/01/22 13:14:20;;;;;;;1.70;0.90;;;6.60;99.90;;;;;;5093622;28;20436;-56
2022/01/22 13:16:49;;;;;;;1.25;0.80;;;6.20;99.90;;;;;;5094048;28;20848;-52
2022/01/22 13:19:16;;;;;;;1.30;0.90;;;6.30;99.90;;;;;;5092580;28;20425;-55
2022/01/22 13:21:53;;;;;;;1.43;0.70;;;6.60;99.90;;;;;;5094097;28;20521;-57
2022/01/22 13:24:26;;;;;;;1.48;0.80;;;6.50;99.90;;;;;;5094139;28;20441;-55
2022/01/22 13:26:57;;;;;;;1.63;0.82;;;6.90;99.90;;;;;;5092959;28;20879;-56
2022/01/22 13:29:27;;;;;;;1.60;0.80;;;7.00;99.90;;;;;;5093082;28;20836;-56
2022/01/22 13:32:16;;;;;;;1.40;0.90;;;7.00;99.90;;;;;;5093783;28;20833;-57
2022/01/22 13:35:09;;;;;;;2.38;0.90;;;7.00;99.90;;;;;;5094300;28;20413;-53
2022/01/22 13:49:29;;;;;;;1.65;0.80;;;6.70;99.90;;;;;;5073852;28;20427;-57
2022/01/22 13:51:59;;;;;;;2.70;1.00;;;6.40;99.90;;;;;;5072708;28;20500;-57
2022/01/22 13:54:32;;;;;;;1.63;1.02;;;6.30;99.90;;;;;;5073356;28;20427;-58
2022/01/22 13:57:05;;;;;;;1.92;1.00;;;6.10;99.90;;;;;;5073289;28;20885;-58
2022/01/22 13:59:36;;;;;;;2.00;1.00;;;6.10;99.90;;;;;;5072875;28;20511;-58
2022/01/22 14:02:13;;;;;;;1.60;1.10;;;6.10;99.90;;;;;;5072690;28;20420;-57
2022/01/22 14:04:43;;;;;;;1.90;1.00;;;6.00;99.90;;;;;;5072521;28;20488;-56
2022/01/22 14:07:15;;;;;;;2.63;1.10;;;6.00;99.90;;;;;;5071231;28;20925;-56
2022/01/22 14:09:54;;;;;;;2.50;1.40;;;6.00;99.90;;;;;;5072918;28;20443;-57
2022/01/22 14:12:23;;;;;;;5.47;1.80;;;6.00;99.90;;;;;;5073491;28;20419;-58
2022/01/22 14:15:02;;;;;;;1.80;0.90;;;6.10;99.90;;;;;;5073450;28;20839;-57
2022/01/22 14:17:37;;;;;;;1.80;1.10;;;6.30;99.90;;;;;;5072631;28;20827;-58
2022/01/22 14:20:09;;;;;;;2.90;1.10;;;6.50;99.90;;;;;;5075998;28;20439;-59
2022/01/22 14:22:57;;;;;;;1.52;1.00;;;6.40;99.90;;;;;;5077170;28;20497;-58
2022/01/22 14:25:25;;;;;;;1.75;1.10;;;6.50;99.90;;;;;;5077393;28;20465;-56
2022/01/22 14:28:12;;;;;;;3.60;1.50;;;6.50;99.90;;;;;;5077438;28;20470;-57
2022/01/22 14:30:44;;;;;;;2.15;1.05;;;6.30;99.90;;;;;;5082181;28;20490;-57
2022/01/22 14:33:13;;;;;;;1.90;1.20;;;6.40;99.90;;;;;;5095621;28;20479;-57
2022/01/22 14:35:46;;;;;;;1.60;1.10;;;6.40;99.90;;;;;;5096578;28;20534;-55
2022/01/22 14:38:35;;;;;;;2.20;1.00;;;6.20;99.90;;;;;;5098030;28;20504;-56
2022/01/22 14:46:52;;;;;;;2.60;1.20;;;6.10;99.90;;;;;;5096400;28;20837;-56
2022/01/22 14:49:24;;;;;;;4.85;1.20;;;5.90;99.90;;;;;;5095648;28;20409;-55